sensor_id;sensor_type;location;lat;lon;timestamp;pressure;altitude;pressure_sealevel;temperature;humidity
48089;BME280;33867;50.314;7.802;2023-08-20T00:02:03;100779.88;;;21.94;83.53
48089;BME280;33867;50.314;7.802;2023-08-20T00:05:39;100785.41;;;22.07;82.37
48089;BME280;33867;50.314;7.802;2023-08-20T00:09:00;100776.94;;;22.02;82.44
48089;BME280;33867;50.314;7.802;2023-08-20T00:12:19;100778.25;;;22.06;82.42
48089;BME280;33867;50.314;7.802;2023-08-20T00:15:40;100769.53;;;21.82;84.07
48089;BME280;33867;50.314;7.802;2023-08-20T00:18:59;100769.25;;;21.64;85.18
48089;BME280;33867;50.314;7.802;2023-08-20T00:22:21;100764.22;;;21.74;83.98
48089;BME280;33867;50.314;7.802;2023-08-20T00:25:44;100776.66;;;21.77;83.65
48089;BME280;33867;50.314;7.802;2023-08-20T00:29:09;100780.69;;;21.81;83.25
48089;BME280;33867;50.314;7.802;2023-08-20T00:32:31;100776.91;;;21.82;82.76
48089;BME280;33867;50.314;7.802;2023-08-20T00:35:50;100780.69;;;21.81;83.06
48089;BME280;33867;50.314;7.802;2023-08-20T00:39:16;100782.97;;;21.77;82.96
48089;BME280;33867;50.314;7.802;2023-08-20T00:42:36;100784.25;;;21.75;83.00
48089;BME280;33867;50.314;7.802;2023-08-20T00:46:04;100773.88;;;21.57;84.64
48089;BME280;33867;50.314;7.802;2023-08-20T00:49:29;100776.63;;;21.64;83.62
48089;BME280;33867;50.314;7.802;2023-08-20T00:52:54;100770.69;;;21.53;84.19
48089;BME280;33867;50.314;7.802;2023-08-20T00:56:13;100770.09;;;21.65;83.61
48089;BME280;33867;50.314;7.802;2023-08-20T00:59:36;100776.16;;;21.53;84.29
48089;BME280;33867;50.314;7.802;2023-08-20T01:02:55;100775.97;;;21.55;84.38
48089;BME280;33867;50.314;7.802;2023-08-20T01:06:43;100784.22;;;21.62;83.78
48089;BME280;33867;50.314;7.802;2023-08-20T01:13:46;100783.44;;;21.26;87.22
48089;BME280;33867;50.314;7.802;2023-08-20T01:17:05;100791.91;;;21.32;86.13
48089;BME280;33867;50.314;7.802;2023-08-20T01:20:35;100789.78;;;21.34;85.10
48089;BME280;33867;50.314;7.802;2023-08-20T01:27:42;100788.00;;;21.19;85.81
48089;BME280;33867;50.314;7.802;2023-08-20T01:31:07;100800.41;;;21.15;86.66
48089;BME280;33867;50.314;7.802;2023-08-20T01:34:26;100800.53;;;21.07;87.35
48089;BME280;33867;50.314;7.802;2023-08-20T01:37:45;100795.56;;;21.17;85.75
48089;BME280;33867;50.314;7.802;2023-08-20T01:41:05;100803.56;;;21.19;85.34
48089;BME280;33867;50.314;7.802;2023-08-20T01:44:39;100807.91;;;21.35;84.28
48089;BME280;33867;50.314;7.802;2023-08-20T01:47:59;100806.50;;;21.45;83.68
48089;BME280;33867;50.314;7.802;2023-08-20T01:55:33;100809.19;;;21.39;84.96
48089;BME280;33867;50.314;7.802;2023-08-20T01:59:17;100815.16;;;21.49;84.03
48089;BME280;33867;50.314;7.802;2023-08-20T02:06:09;100812.63;;;21.54;84.87
48089;BME280;33867;50.314;7.802;2023-08-20T02:09:44;100814.25;;;21.42;85.06
48089;BME280;33867;50.314;7.802;2023-08-20T02:13:17;100808.00;;;21.54;84.04
48089;BME280;33867;50.314;7.802;2023-08-20T02:16:45;100802.66;;;21.40;86.97
48089;BME280;33867;50.314;7.802;2023-08-20T02:20:08;100805.84;;;21.43;87.35
48089;BME280;33867;50.314;7.802;2023-08-20T02:27:18;100794.69;;;21.45;86.93
48089;BME280;33867;50.314;7.802;2023-08-20T02:30:58;100783.06;;;21.43;86.50
48089;BME280;33867;50.314;7.802;2023-08-20T02:34:21;100790.53;;;21.55;85.26
48089;BME280;33867;50.314;7.802;2023-08-20T02:37:52;100792.38;;;21.48;86.37
48089;BME280;33867;50.314;7.802;2023-08-20T02:41:23;100784.25;;;21.27;88.25
48089;BME280;33867;50.314;7.802;2023-08-20T02:45:18;100788.97;;;21.40;86.64
48089;BME280;33867;50.314;7.802;2023-08-20T02:48:47;100779.63;;;21.27;88.45
48089;BME280;33867;50.314;7.802;2023-08-20T02:52:13;100771.72;;;21.46;85.88
48089;BME280;33867;50.314;7.802;2023-08-20T02:55:53;100767.50;;;21.43;86.66
48089;BME280;33867;50.314;7.802;2023-08-20T02:59:20;100775.31;;;21.46;86.29
48089;BME280;33867;50.314;7.802;2023-08-20T03:02:44;100776.38;;;21.52;85.68
48089;BME280;33867;50.314;7.802;2023-08-20T03:06:03;100789.69;;;21.20;89.56
48089;BME280;33867;50.314;7.802;2023-08-20T03:09:25;100798.44;;;21.37;86.90
48089;BME280;33867;50.314;7.802;2023-08-20T03:12:51;100801.84;;;21.46;86.12
48089;BME280;33867;50.314;7.802;2023-08-20T03:16:25;100805.22;;;21.48;85.74
48089;BME280;33867;50.314;7.802;2023-08-20T03:19:58;100813.41;;;21.41;86.48
48089;BME280;33867;50.314;7.802;2023-08-20T03:23:20;100807.72;;;21.43;86.14
48089;BME280;33867;50.314;7.802;2023-08-20T03:26:54;100812.47;;;20.93;89.90
48089;BME280;33867;50.314;7.802;2023-08-20T03:30:43;100816.97;;;21.07;88.35
48089;BME280;33867;50.314;7.802;2023-08-20T03:34:16;100827.13;;;21.13;87.39
48089;BME280;33867;50.314;7.802;2023-08-20T03:37:41;100818.56;;;20.88;88.40
48089;BME280;33867;50.314;7.802;2023-08-20T03:41:17;100811.03;;;20.69;90.31
48089;BME280;33867;50.314;7.802;2023-08-20T03:44:45;100813.06;;;20.88;88.87
48089;BME280;33867;50.314;7.802;2023-08-20T03:48:12;100821.25;;;21.16;86.92
48089;BME280;33867;50.314;7.802;2023-08-20T03:51:35;100832.47;;;21.21;86.96
48089;BME280;33867;50.314;7.802;2023-08-20T03:54:54;100829.09;;;21.19;86.85
48089;BME280;33867;50.314;7.802;2023-08-20T03:58:16;100832.97;;;21.32;86.17
48089;BME280;33867;50.314;7.802;2023-08-20T04:01:40;100831.25;;;21.30;86.51
48089;BME280;33867;50.314;7.802;2023-08-20T04:04:59;100836.56;;;21.32;86.25
48089;BME280;33867;50.314;7.802;2023-08-20T04:08:29;100838.47;;;21.32;86.17
48089;BME280;33867;50.314;7.802;2023-08-20T04:11:58;100831.47;;;21.29;86.37
48089;BME280;33867;50.314;7.802;2023-08-20T04:15:17;100831.53;;;21.36;85.38
48089;BME280;33867;50.314;7.802;2023-08-20T04:18:38;100836.16;;;21.35;85.62
48089;BME280;33867;50.314;7.802;2023-08-20T04:22:01;100837.44;;;21.39;85.10
48089;BME280;33867;50.314;7.802;2023-08-20T04:25:51;100841.28;;;21.45;84.60
48089;BME280;33867;50.314;7.802;2023-08-20T04:29:27;100835.94;;;21.37;86.04
48089;BME280;33867;50.314;7.802;2023-08-20T04:33:01;100839.97;;;21.41;85.10
48089;BME280;33867;50.314;7.802;2023-08-20T04:36:23;100837.34;;;21.26;86.13
48089;BME280;33867;50.314;7.802;2023-08-20T04:39:47;100837.78;;;21.29;85.74
48089;BME280;33867;50.314;7.802;2023-08-20T04:43:15;100849.41;;;21.32;85.24
48089;BME280;33867;50.314;7.802;2023-08-20T04:46:51;100851.75;;;21.35;85.07
48089;BME280;33867;50.314;7.802;2023-08-20T04:50:19;100861.84;;;21.34;85.77
48089;BME280;33867;50.314;7.802;2023-08-20T04:53:40;100859.50;;;21.31;85.77
48089;BME280;33867;50.314;7.802;2023-08-20T04:57:06;100858.66;;;21.30;85.40
48089;BME280;33867;50.314;7.802;2023-08-20T05:05:04;100880.00;;;21.42;84.63
48089;BME280;33867;50.314;7.802;2023-08-20T05:08:25;100873.03;;;21.39;85.02
48089;BME280;33867;50.314;7.802;2023-08-20T05:11:50;100881.03;;;21.34;85.15
48089;BME280;33867;50.314;7.802;2023-08-20T05:15:15;100889.69;;;21.38;84.70
48089;BME280;33867;50.314;7.802;2023-08-20T05:18:35;100894.38;;;21.44;84.93
48089;BME280;33867;50.314;7.802;2023-08-20T05:22:03;100894.81;;;21.54;83.95
48089;BME280;33867;50.314;7.802;2023-08-20T05:25:26;100888.16;;;21.28;86.84
48089;BME280;33867;50.314;7.802;2023-08-20T05:28:50;100904.28;;;21.45;84.90
48089;BME280;33867;50.314;7.802;2023-08-20T05:32:35;100892.34;;;21.59;83.73
48089;BME280;33867;50.314;7.802;2023-08-20T05:35:58;100895.31;;;21.64;83.30
48089;BME280;33867;50.314;7.802;2023-08-20T05:39:46;100890.72;;;21.71;82.76
48089;BME280;33867;50.314;7.802;2023-08-20T05:43:09;100886.50;;;21.75;82.78
48089;BME280;33867;50.314;7.802;2023-08-20T05:46:53;100896.69;;;21.81;82.47
48089;BME280;33867;50.314;7.802;2023-08-20T05:50:17;100896.94;;;21.52;85.44
48089;BME280;33867;50.314;7.802;2023-08-20T05:53:36;100900.41;;;21.74;83.68
48089;BME280;33867;50.314;7.802;2023-08-20T05:57:07;100908.44;;;21.75;84.13
48089;BME280;33867;50.314;7.802;2023-08-20T06:00:42;100918.66;;;21.95;83.25
48089;BME280;33867;50.314;7.802;2023-08-20T06:04:36;100921.25;;;22.03;82.89
48089;BME280;33867;50.314;7.802;2023-08-20T06:08:12;100924.66;;;21.70;85.21
48089;BME280;33867;50.314;7.802;2023-08-20T06:12:12;100911.03;;;21.83;84.25
48089;BME280;33867;50.314;7.802;2023-08-20T06:15:34;100922.13;;;22.10;82.80
48089;BME280;33867;50.314;7.802;2023-08-20T06:19:00;100915.41;;;22.19;82.62
48089;BME280;33867;50.314;7.802;2023-08-20T06:22:28;100919.28;;;22.38;82.03
48089;BME280;33867;50.314;7.802;2023-08-20T06:25:55;100910.81;;;22.33;83.67
48089;BME280;33867;50.314;7.802;2023-08-20T06:29:15;100907.69;;;22.01;84.67
48089;BME280;33867;50.314;7.802;2023-08-20T06:32:37;100909.88;;;22.12;83.88
48089;BME280;33867;50.314;7.802;2023-08-20T06:36:00;100914.34;;;22.20;83.18
48089;BME280;33867;50.314;7.802;2023-08-20T06:39:20;100913.97;;;22.30;83.07
48089;BME280;33867;50.314;7.802;2023-08-20T06:42:42;100910.16;;;22.37;82.97
48089;BME280;33867;50.314;7.802;2023-08-20T06:46:23;100918.84;;;22.41;83.39
48089;BME280;33867;50.314;7.802;2023-08-20T06:49:57;100915.72;;;22.64;82.41
48089;BME280;33867;50.314;7.802;2023-08-20T06:53:19;100916.44;;;22.99;81.13
48089;BME280;33867;50.314;7.802;2023-08-20T06:56:43;100923.81;;;22.85;82.05
48089;BME280;33867;50.314;7.802;2023-08-20T07:00:06;100909.25;;;23.11;81.23
48089;BME280;33867;50.314;7.802;2023-08-20T07:03:43;100905.56;;;23.44;79.60
48089;BME280;33867;50.314;7.802;2023-08-20T07:07:12;100902.31;;;23.86;78.80
48089;BME280;33867;50.314;7.802;2023-08-20T07:10:36;100901.66;;;24.99;74.70
48089;BME280;33867;50.314;7.802;2023-08-20T07:13:55;100906.94;;;25.00;73.77
48089;BME280;33867;50.314;7.802;2023-08-20T07:17:17;100917.09;;;26.23;70.11
48089;BME280;33867;50.314;7.802;2023-08-20T07:20:47;100906.78;;;28.24;61.59
48089;BME280;33867;50.314;7.802;2023-08-20T07:24:36;100913.41;;;26.29;68.91
48089;BME280;33867;50.314;7.802;2023-08-20T07:27:55;100906.78;;;26.90;67.44
48089;BME280;33867;50.314;7.802;2023-08-20T07:31:18;100910.44;;;27.37;65.73
48089;BME280;33867;50.314;7.802;2023-08-20T07:34:57;100910.75;;;26.94;66.31
48089;BME280;33867;50.314;7.802;2023-08-20T07:38:16;100916.78;;;26.61;68.19
48089;BME280;33867;50.314;7.802;2023-08-20T07:41:51;100914.44;;;28.05;64.81
48089;BME280;33867;50.314;7.802;2023-08-20T07:45:33;100920.25;;;28.44;63.54
48089;BME280;33867;50.314;7.802;2023-08-20T07:49:05;100913.88;;;28.60;62.84
48089;BME280;33867;50.314;7.802;2023-08-20T07:58:13;100907.63;;;28.36;61.81
48089;BME280;33867;50.314;7.802;2023-08-20T08:16:02;100906.19;;;30.07;56.60
48089;BME280;33867;50.314;7.802;2023-08-20T08:19:25;100914.56;;;30.55;55.84
48089;BME280;33867;50.314;7.802;2023-08-20T08:23:03;100908.00;;;29.74;56.29
48089;BME280;33867;50.314;7.802;2023-08-20T08:26:42;100913.88;;;30.70;55.63
48089;BME280;33867;50.314;7.802;2023-08-20T08:33:45;100908.97;;;30.07;54.09
48089;BME280;33867;50.314;7.802;2023-08-20T08:37:05;100911.53;;;29.91;54.32
48089;BME280;33867;50.314;7.802;2023-08-20T08:40:28;100900.16;;;30.10;55.88
48089;BME280;33867;50.314;7.802;2023-08-20T08:43:51;100901.97;;;29.82;55.79
48089;BME280;33867;50.314;7.802;2023-08-20T08:47:18;100915.03;;;30.25;55.18
48089;BME280;33867;50.314;7.802;2023-08-20T08:57:57;100911.41;;;30.74;54.89
48089;BME280;33867;50.314;7.802;2023-08-20T09:05:17;100894.19;;;31.09;51.30
48089;BME280;33867;50.314;7.802;2023-08-20T09:08:39;100911.69;;;30.72;52.08
48089;BME280;33867;50.314;7.802;2023-08-20T09:16:37;100905.03;;;30.51;52.67
48089;BME280;33867;50.314;7.802;2023-08-20T09:20:00;100897.03;;;30.55;52.16
48089;BME280;33867;50.314;7.802;2023-08-20T09:23:28;100891.09;;;30.46;51.32
48089;BME280;33867;50.314;7.802;2023-08-20T09:26:48;100907.66;;;30.36;52.26
48089;BME280;33867;50.314;7.802;2023-08-20T09:30:08;100901.09;;;30.69;53.31
48089;BME280;33867;50.314;7.802;2023-08-20T09:33:30;100897.75;;;30.67;52.08
48089;BME280;33867;50.314;7.802;2023-08-20T09:36:57;100896.94;;;30.45;52.86
48089;BME280;33867;50.314;7.802;2023-08-20T09:40:16;100898.56;;;31.37;52.02
48089;BME280;33867;50.314;7.802;2023-08-20T09:43:25;100885.41;;;31.22;50.63
48089;BME280;33867;50.314;7.802;2023-08-20T09:46:47;100883.31;;;31.39;52.83
48089;BME280;33867;50.314;7.802;2023-08-20T09:50:11;100897.47;;;30.69;52.83
48089;BME280;33867;50.314;7.802;2023-08-20T09:57:41;100893.00;;;31.00;53.00
48089;BME280;33867;50.314;7.802;2023-08-20T10:01:00;100884.72;;;31.42;51.45
48089;BME280;33867;50.314;7.802;2023-08-20T10:04:23;100894.91;;;30.40;51.77
48089;BME280;33867;50.314;7.802;2023-08-20T10:07:43;100890.63;;;30.27;54.54
48089;BME280;33867;50.314;7.802;2023-08-20T10:11:02;100878.03;;;30.74;52.29
48089;BME280;33867;50.314;7.802;2023-08-20T10:14:27;100876.34;;;30.68;50.39
48089;BME280;33867;50.314;7.802;2023-08-20T10:17:47;100881.19;;;30.55;53.67
48089;BME280;33867;50.314;7.802;2023-08-20T10:21:06;100880.41;;;31.24;48.96
48089;BME280;33867;50.314;7.802;2023-08-20T10:24:40;100873.13;;;32.23;49.79
48089;BME280;33867;50.314;7.802;2023-08-20T10:28:13;100874.56;;;32.51;45.31
48089;BME280;33867;50.314;7.802;2023-08-20T10:31:46;100880.91;;;32.21;45.71
48089;BME280;33867;50.314;7.802;2023-08-20T10:35:06;100879.88;;;33.54;48.23
48089;BME280;33867;50.314;7.802;2023-08-20T14:53:07;100735.28;;;36.02;36.96
48089;BME280;33867;50.314;7.802;2023-08-20T14:56:29;100733.63;;;36.01;37.54
48089;BME280;33867;50.314;7.802;2023-08-20T14:59:48;100740.91;;;36.02;37.31
48089;BME280;33867;50.314;7.802;2023-08-20T15:25:21;100721.72;;;35.05;39.60
48089;BME280;33867;50.314;7.802;2023-08-20T15:28:41;100720.34;;;35.02;38.68
48089;BME280;33867;50.314;7.802;2023-08-20T15:32:27;100727.19;;;34.91;39.56
48089;BME280;33867;50.314;7.802;2023-08-20T15:35:53;100721.84;;;34.66;40.21
48089;BME280;33867;50.314;7.802;2023-08-20T15:39:12;100725.84;;;33.86;43.00
48089;BME280;33867;50.314;7.802;2023-08-20T15:42:33;100728.72;;;33.66;40.88
48089;BME280;33867;50.314;7.802;2023-08-20T15:45:53;100732.22;;;33.42;42.58
48089;BME280;33867;50.314;7.802;2023-08-20T15:49:12;100732.38;;;33.61;40.54
48089;BME280;33867;50.314;7.802;2023-08-20T15:56:08;100728.28;;;33.38;41.19
48089;BME280;33867;50.314;7.802;2023-08-20T15:59:27;100719.94;;;33.38;40.82
48089;BME280;33867;50.314;7.802;2023-08-20T16:02:46;100726.13;;;33.15;42.28
48089;BME280;33867;50.314;7.802;2023-08-20T16:06:05;100718.06;;;33.13;42.07
48089;BME280;33867;50.314;7.802;2023-08-20T16:09:28;100715.59;;;33.07;45.41
48089;BME280;33867;50.314;7.802;2023-08-20T16:19:58;100719.00;;;32.17;43.75
48089;BME280;33867;50.314;7.802;2023-08-20T16:23:18;100715.06;;;31.83;41.16
48089;BME280;33867;50.314;7.802;2023-08-20T16:26:37;100714.91;;;31.37;43.60
48089;BME280;33867;50.314;7.802;2023-08-20T16:29:56;100710.81;;;31.60;45.32
48089;BME280;33867;50.314;7.802;2023-08-20T16:33:16;100711.13;;;31.74;47.10
48089;BME280;33867;50.314;7.802;2023-08-20T16:36:35;100712.22;;;31.72;46.11
48089;BME280;33867;50.314;7.802;2023-08-20T16:39:57;100706.66;;;31.62;49.02
48089;BME280;33867;50.314;7.802;2023-08-20T16:43:16;100702.28;;;31.14;47.39
48089;BME280;33867;50.314;7.802;2023-08-20T16:46:36;100706.25;;;30.76;46.02
48089;BME280;33867;50.314;7.802;2023-08-20T16:49:56;100707.50;;;31.00;49.55
48089;BME280;33867;50.314;7.802;2023-08-20T16:53:15;100702.81;;;31.06;51.29
48089;BME280;33867;50.314;7.802;2023-08-20T16:56:35;100705.88;;;31.09;52.08
48089;BME280;33867;50.314;7.802;2023-08-20T16:59:54;100711.69;;;31.03;52.90
48089;BME280;33867;50.314;7.802;2023-08-20T17:03:13;100713.59;;;30.92;53.35
48089;BME280;33867;50.314;7.802;2023-08-20T17:06:33;100710.47;;;30.83;53.64
48089;BME280;33867;50.314;7.802;2023-08-20T17:09:55;100706.28;;;30.81;54.46
48089;BME280;33867;50.314;7.802;2023-08-20T17:13:14;100711.25;;;30.74;54.56
48089;BME280;33867;50.314;7.802;2023-08-20T17:16:33;100712.00;;;30.64;55.20
48089;BME280;33867;50.314;7.802;2023-08-20T17:19:52;100709.94;;;30.49;56.33
48089;BME280;33867;50.314;7.802;2023-08-20T17:23:11;100712.53;;;29.97;53.40
48089;BME280;33867;50.314;7.802;2023-08-20T17:26:30;100718.66;;;29.99;54.64
48089;BME280;33867;50.314;7.802;2023-08-20T17:29:50;100707.19;;;29.90;54.59
48089;BME280;33867;50.314;7.802;2023-08-20T17:33:09;100718.19;;;29.80;56.95
48089;BME280;33867;50.314;7.802;2023-08-20T17:36:34;100718.34;;;29.47;56.96
48089;BME280;33867;50.314;7.802;2023-08-20T17:39:53;100717.72;;;29.39;58.79
48089;BME280;33867;50.314;7.802;2023-08-20T17:43:12;100722.34;;;29.34;58.71
48089;BME280;33867;50.314;7.802;2023-08-20T17:46:45;100727.41;;;29.15;58.82
48089;BME280;33867;50.314;7.802;2023-08-20T17:50:05;100722.25;;;29.02;59.00
48089;BME280;33867;50.314;7.802;2023-08-20T17:53:25;100719.38;;;28.97;59.71
48089;BME280;33867;50.314;7.802;2023-08-20T17:56:47;100727.47;;;28.81;60.64
48089;BME280;33867;50.314;7.802;2023-08-20T18:00:07;100732.06;;;28.76;60.68
48089;BME280;33867;50.314;7.802;2023-08-20T18:03:32;100737.59;;;28.54;62.35
48089;BME280;33867;50.314;7.802;2023-08-20T18:06:54;100736.22;;;28.40;62.73
48089;BME280;33867;50.314;7.802;2023-08-20T18:10:13;100741.56;;;27.96;63.36
48089;BME280;33867;50.314;7.802;2023-08-20T18:13:33;100746.25;;;27.55;64.91
48089;BME280;33867;50.314;7.802;2023-08-20T18:16:54;100747.44;;;27.19;65.49
48089;BME280;33867;50.314;7.802;2023-08-20T18:20:13;100749.72;;;27.22;66.47
48089;BME280;33867;50.314;7.802;2023-08-20T18:23:33;100759.56;;;27.30;66.03
48089;BME280;33867;50.314;7.802;2023-08-20T18:26:54;100759.59;;;27.06;65.47
48089;BME280;33867;50.314;7.802;2023-08-20T18:30:13;100761.63;;;27.11;65.91
48089;BME280;33867;50.314;7.802;2023-08-20T18:33:33;100770.88;;;26.70;67.01
48089;BME280;33867;50.314;7.802;2023-08-20T18:36:52;100770.03;;;26.69;67.36
48089;BME280;33867;50.314;7.802;2023-08-20T18:40:11;100781.69;;;26.60;67.14
48089;BME280;33867;50.314;7.802;2023-08-20T18:43:30;100789.38;;;26.58;68.17
48089;BME280;33867;50.314;7.802;2023-08-20T18:46:54;100789.88;;;26.55;68.34
48089;BME280;33867;50.314;7.802;2023-08-20T18:50:13;100791.41;;;26.50;68.01
48089;BME280;33867;50.314;7.802;2023-08-20T18:53:33;100801.47;;;26.45;68.32
48089;BME280;33867;50.314;7.802;2023-08-20T18:56:52;100810.63;;;26.45;67.81
48089;BME280;33867;50.314;7.802;2023-08-20T19:00:18;100817.56;;;26.06;68.38
48089;BME280;33867;50.314;7.802;2023-08-20T19:03:37;100828.16;;;26.21;68.16
48089;BME280;33867;50.314;7.802;2023-08-20T19:06:59;100822.47;;;26.16;68.55
48089;BME280;33867;50.314;7.802;2023-08-20T19:10:19;100834.50;;;25.91;70.18
48089;BME280;33867;50.314;7.802;2023-08-20T19:13:38;100833.34;;;25.99;69.28
48089;BME280;33867;50.314;7.802;2023-08-20T19:16:58;100838.63;;;26.01;69.05
48089;BME280;33867;50.314;7.802;2023-08-20T19:20:17;100837.06;;;25.93;68.91
48089;BME280;33867;50.314;7.802;2023-08-20T19:23:37;100850.56;;;25.83;69.59
48089;BME280;33867;50.314;7.802;2023-08-20T19:26:56;100843.66;;;25.74;69.32
48089;BME280;33867;50.314;7.802;2023-08-20T19:30:16;100844.94;;;25.53;71.01
48089;BME280;33867;50.314;7.802;2023-08-20T19:33:38;100848.31;;;25.36;70.56
48089;BME280;33867;50.314;7.802;2023-08-20T19:37:02;100851.66;;;25.20;71.40
48089;BME280;33867;50.314;7.802;2023-08-20T19:40:22;100859.28;;;25.00;71.58
48089;BME280;33867;50.314;7.802;2023-08-20T19:43:48;100860.66;;;25.09;71.32
48089;BME280;33867;50.314;7.802;2023-08-20T19:47:07;100863.75;;;24.38;73.78
48089;BME280;33867;50.314;7.802;2023-08-20T19:50:29;100865.09;;;24.60;72.79
48089;BME280;33867;50.314;7.802;2023-08-20T19:53:50;100873.88;;;24.75;72.46
48089;BME280;33867;50.314;7.802;2023-08-20T19:57:09;100872.09;;;24.63;74.01
48089;BME280;33867;50.314;7.802;2023-08-20T20:00:28;100872.22;;;24.74;73.12
48089;BME280;33867;50.314;7.802;2023-08-20T20:03:47;100868.81;;;24.72;73.42
48089;BME280;33867;50.314;7.802;2023-08-20T20:07:06;100879.06;;;24.65;73.34
48089;BME280;33867;50.314;7.802;2023-08-20T20:10:28;100884.97;;;24.62;73.05
48089;BME280;33867;50.314;7.802;2023-08-20T20:13:47;100878.00;;;24.60;72.95
48089;BME280;33867;50.314;7.802;2023-08-20T20:17:08;100892.72;;;24.47;73.29
48089;BME280;33867;50.314;7.802;2023-08-20T20:20:31;100881.31;;;24.43;73.28
48089;BME280;33867;50.314;7.802;2023-08-20T20:23:53;100888.53;;;24.38;73.20
48089;BME280;33867;50.314;7.802;2023-08-20T20:27:12;100881.34;;;24.37;73.15
48089;BME280;33867;50.314;7.802;2023-08-20T20:30:35;100885.69;;;24.13;74.71
48089;BME280;33867;50.314;7.802;2023-08-20T20:33:54;100894.38;;;24.10;74.65
48089;BME280;33867;50.314;7.802;2023-08-20T20:37:13;100893.31;;;24.17;73.95
48089;BME280;33867;50.314;7.802;2023-08-20T20:40:32;100895.59;;;23.82;76.42
48089;BME280;33867;50.314;7.802;2023-08-20T20:43:51;100895.19;;;23.66;76.48
48089;BME280;33867;50.314;7.802;2023-08-20T20:47:10;100894.13;;;23.67;76.87
48089;BME280;33867;50.314;7.802;2023-08-20T20:50:30;100905.91;;;23.87;75.90
48089;BME280;33867;50.314;7.802;2023-08-20T20:53:49;100903.22;;;23.80;75.78
48089;BME280;33867;50.314;7.802;2023-08-20T20:57:08;100910.81;;;23.78;76.09
48089;BME280;33867;50.314;7.802;2023-08-20T21:00:27;100905.53;;;23.77;76.06
48089;BME280;33867;50.314;7.802;2023-08-20T21:03:46;100905.06;;;23.86;75.01
48089;BME280;33867;50.314;7.802;2023-08-20T21:07:06;100911.19;;;23.88;74.65
48089;BME280;33867;50.314;7.802;2023-08-20T21:10:25;100914.84;;;23.56;76.83
48089;BME280;33867;50.314;7.802;2023-08-20T21:13:44;100908.31;;;23.57;76.13
48089;BME280;33867;50.314;7.802;2023-08-20T21:17:03;100908.31;;;23.63;76.14
48089;BME280;33867;50.314;7.802;2023-08-20T21:20:23;100913.81;;;23.63;76.12
48089;BME280;33867;50.314;7.802;2023-08-20T21:23:44;100922.28;;;23.69;75.50
48089;BME280;33867;50.314;7.802;2023-08-20T21:27:03;100913.38;;;23.53;77.15
48089;BME280;33867;50.314;7.802;2023-08-20T21:30:22;100921.22;;;23.50;76.79
48089;BME280;33867;50.314;7.802;2023-08-20T21:33:41;100917.44;;;23.38;76.98
48089;BME280;33867;50.314;7.802;2023-08-20T21:37:02;100921.44;;;23.48;75.99
48089;BME280;33867;50.314;7.802;2023-08-20T21:40:21;100927.16;;;23.40;76.55
48089;BME280;33867;50.314;7.802;2023-08-20T21:43:41;100932.06;;;22.98;80.15
48089;BME280;33867;50.314;7.802;2023-08-20T21:47:18;100933.31;;;22.89;78.64
48089;BME280;33867;50.314;7.802;2023-08-20T21:50:41;100929.72;;;22.95;78.62
48089;BME280;33867;50.314;7.802;2023-08-20T21:54:03;100933.75;;;22.99;77.94
48089;BME280;33867;50.314;7.802;2023-08-20T21:57:22;100944.25;;;22.76;79.08
48089;BME280;33867;50.314;7.802;2023-08-20T22:00:41;100932.47;;;22.95;78.02
48089;BME280;33867;50.314;7.802;2023-08-20T22:04:00;100925.03;;;22.76;79.42
48089;BME280;33867;50.314;7.802;2023-08-20T22:07:22;100928.03;;;22.88;78.56
48089;BME280;33867;50.314;7.802;2023-08-20T22:10:41;100935.03;;;22.97;78.00
48089;BME280;33867;50.314;7.802;2023-08-20T22:14:00;100935.44;;;22.87;78.64
48089;BME280;33867;50.314;7.802;2023-08-20T22:17:20;100932.88;;;22.92;78.15
48089;BME280;33867;50.314;7.802;2023-08-20T22:20:39;100938.38;;;22.92;78.72
48089;BME280;33867;50.314;7.802;2023-08-20T22:23:58;100949.38;;;22.92;78.45
48089;BME280;33867;50.314;7.802;2023-08-20T22:27:28;100949.31;;;22.79;79.39
48089;BME280;33867;50.314;7.802;2023-08-20T22:30:47;100943.25;;;22.90;78.04
48089;BME280;33867;50.314;7.802;2023-08-20T22:34:07;100948.53;;;22.92;78.41
48089;BME280;33867;50.314;7.802;2023-08-20T22:37:26;100953.16;;;22.85;79.16
48089;BME280;33867;50.314;7.802;2023-08-20T22:40:47;100952.75;;;22.88;78.46
48089;BME280;33867;50.314;7.802;2023-08-20T22:44:14;100955.22;;;22.83;78.51
48089;BME280;33867;50.314;7.802;2023-08-20T22:47:33;100951.66;;;22.75;79.05
48089;BME280;33867;50.314;7.802;2023-08-20T22:50:55;100950.81;;;22.75;78.61
48089;BME280;33867;50.314;7.802;2023-08-20T22:54:20;100948.69;;;22.77;78.76
48089;BME280;33867;50.314;7.802;2023-08-20T22:57:41;100946.34;;;22.67;78.85
48089;BME280;33867;50.314;7.802;2023-08-20T23:01:03;100936.63;;;22.71;78.41
48089;BME280;33867;50.314;7.802;2023-08-20T23:04:25;100941.72;;;22.74;78.70
48089;BME280;33867;50.314;7.802;2023-08-20T23:07:52;100948.69;;;22.64;79.12
48089;BME280;33867;50.314;7.802;2023-08-20T23:20:42;100949.50;;;22.51;79.56
48089;BME280;33867;50.314;7.802;2023-08-20T23:24:01;100955.59;;;22.46;79.13
48089;BME280;33867;50.314;7.802;2023-08-20T23:27:22;100947.56;;;22.38;80.29
48089;BME280;33867;50.314;7.802;2023-08-20T23:30:48;100946.09;;;22.42;79.42
48089;BME280;33867;50.314;7.802;2023-08-20T23:34:10;100954.28;;;22.36;80.13
48089;BME280;33867;50.314;7.802;2023-08-20T23:37:35;100948.78;;;22.36;80.30
48089;BME280;33867;50.314;7.802;2023-08-20T23:46:12;100948.13;;;22.14;81.38
48089;BME280;33867;50.314;7.802;2023-08-20T23:49:34;100942.78;;;22.06;82.04
